createdAt,value
2018-03-29T00:01:01.702Z,55.50
2018-03-29T00:03:30.024Z,55.40
2018-03-29T00:05:58.243Z,55.30
2018-03-29T00:08:26.529Z,55.20
2018-03-29T00:10:54.772Z,55.50
2018-03-29T00:13:23.024Z,55.30
2018-03-29T00:15:52.027Z,55.90
2018-03-29T00:18:20.278Z,55.80
2018-03-29T00:20:50.217Z,55.60
2018-03-29T00:23:18.485Z,55.30
2018-03-29T00:25:48.188Z,55.50
2018-03-29T00:28:16.812Z,55.40
2018-03-29T00:30:46.617Z,55.60
2018-03-29T00:33:14.852Z,55.60
2018-03-29T00:35:44.609Z,55.40
2018-03-29T00:38:12.832Z,55.40
2018-03-29T00:40:41.049Z,55.30
2018-03-29T00:43:09.306Z,55.60
2018-03-29T00:45:38.318Z,55.60
2018-03-29T00:48:06.669Z,55.90
2018-03-29T00:50:35.705Z,56.10
2018-03-29T00:53:15.864Z,55.90
2018-03-29T00:55:44.100Z,55.80
2018-03-29T00:58:12.427Z,55.90
2018-03-29T01:00:40.685Z,55.80
2018-03-29T01:03:08.919Z,55.50
2018-03-29T01:05:37.173Z,55.70
2018-03-29T01:08:06.254Z,56.00
2018-03-29T01:10:34.509Z,56.10
2018-03-29T01:13:02.742Z,56.00
2018-03-29T01:15:32.955Z,56.40
2018-03-29T01:18:01.647Z,56.00
2018-03-29T01:20:30.112Z,56.00
2018-03-29T01:22:59.862Z,56.20
2018-03-29T01:25:28.098Z,56.20
2018-03-29T01:27:56.365Z,56.20
2018-03-29T01:30:25.850Z,56.10
2018-03-29T01:32:54.078Z,56.00
2018-03-29T01:35:23.062Z,55.60
2018-03-29T01:37:51.436Z,55.70
2018-03-29T01:40:19.774Z,55.90
2018-03-29T01:42:48.023Z,55.70
2018-03-29T01:45:16.282Z,55.80
2018-03-29T01:47:45.464Z,55.90
2018-03-29T01:50:13.945Z,55.80
2018-03-29T01:52:42.199Z,55.60
2018-03-29T01:55:10.432Z,55.60
2018-03-29T01:57:38.704Z,55.60
2018-03-29T02:00:06.975Z,55.60
2018-03-29T02:02:36.805Z,55.40
2018-03-29T02:05:05.045Z,55.50
2018-03-29T02:07:33.424Z,55.90
2018-03-29T02:10:01.715Z,55.50
2018-03-29T02:12:30.704Z,56.50
2018-03-29T02:14:58.941Z,55.70
2018-03-29T02:17:27.209Z,55.60
2018-03-29T02:19:55.439Z,55.50
2018-03-29T02:22:23.708Z,55.60
2018-03-29T02:24:52.731Z,55.50
2018-03-29T02:27:20.961Z,55.30
2018-03-29T02:29:49.235Z,55.10
2018-03-29T02:32:17.985Z,55.20
2018-03-29T02:34:46.236Z,55.50
2018-03-29T02:37:14.477Z,55.60
2018-03-29T02:39:45.039Z,55.60
2018-03-29T02:42:13.289Z,55.40
2018-03-29T02:44:41.555Z,55.50
2018-03-29T02:47:09.802Z,55.10
2018-03-29T02:49:38.053Z,55.20
2018-03-29T02:52:06.308Z,55.30
2018-03-29T02:54:35.376Z,55.10
2018-03-29T02:57:03.616Z,55.20
2018-03-29T02:59:31.867Z,55.00
2018-03-29T03:02:01.130Z,55.00
2018-03-29T03:04:29.366Z,55.30
2018-03-29T03:06:57.634Z,55.20
2018-03-29T03:09:28.286Z,55.60
2018-03-29T03:11:56.589Z,55.40
2018-03-29T03:14:25.430Z,55.30
2018-03-29T03:16:53.703Z,55.40
2018-03-29T03:19:22.033Z,55.40
2018-03-29T03:21:50.253Z,55.00
2018-03-29T03:24:18.686Z,55.10
2018-03-29T03:26:46.901Z,55.30
2018-03-29T03:29:15.161Z,55.00
2018-03-29T03:31:43.520Z,54.80
2018-03-29T03:34:11.799Z,55.20
2018-03-29T03:36:40.859Z,54.90
2018-03-29T03:39:09.121Z,54.90
2018-03-29T03:41:37.646Z,54.80
2018-03-29T03:44:05.859Z,54.70
2018-03-29T03:46:34.113Z,54.80
2018-03-29T03:49:03.121Z,54.80
2018-03-29T03:51:31.603Z,55.10
2018-03-29T03:53:59.833Z,54.60
2018-03-29T03:56:28.081Z,54.60
2018-03-29T03:58:56.361Z,54.70
2018-03-29T04:01:24.608Z,54.40
2018-03-29T04:03:53.102Z,54.70
2018-03-29T04:06:21.436Z,54.50
2018-03-29T04:08:49.668Z,54.50
2018-03-29T04:11:18.010Z,54.70
2018-03-29T04:13:47.013Z,54.90
2018-03-29T04:16:16.280Z,54.60
2018-03-29T04:18:44.763Z,54.60
2018-03-29T04:21:12.989Z,54.10
2018-03-29T04:23:41.313Z,54.00
2018-03-29T04:26:09.845Z,54.30
2018-03-29T04:28:38.276Z,54.20
2018-03-29T04:31:06.485Z,54.10
2018-03-29T04:33:34.749Z,54.80
2018-03-29T04:36:03.930Z,54.40
2018-03-29T04:38:32.165Z,54.30
2018-03-29T04:41:01.972Z,54.40
2018-03-29T04:43:30.231Z,54.40
2018-03-29T04:45:58.470Z,55.00
2018-03-29T04:48:27.465Z,54.40
2018-03-29T04:50:55.866Z,54.50
2018-03-29T04:53:24.077Z,54.30
2018-03-29T04:55:52.306Z,54.50
2018-03-29T04:58:20.666Z,54.50
2018-03-29T05:00:48.905Z,54.80
2018-03-29T05:03:18.813Z,54.50
2018-03-29T05:05:47.053Z,54.70
2018-03-29T05:08:15.321Z,54.70
2018-03-29T05:10:44.505Z,55.10
2018-03-29T05:13:12.976Z,55.00
2018-03-29T05:15:44.079Z,55.10
2018-03-29T05:18:12.386Z,55.00
2018-03-29T05:20:40.618Z,54.80
2018-03-29T05:23:08.878Z,54.70
2018-03-29T05:25:38.650Z,55.00
2018-03-29T05:28:09.728Z,54.80
2018-03-29T05:30:38.750Z,54.50
2018-03-29T05:33:07.142Z,54.70
2018-03-29T05:35:35.366Z,54.70
2018-03-29T05:38:04.382Z,54.90
2018-03-29T05:40:32.770Z,54.80
2018-03-29T05:43:01.782Z,55.20
2018-03-29T05:45:30.049Z,55.00
2018-03-29T05:47:58.297Z,54.90
2018-03-29T05:50:27.338Z,55.10
2018-03-29T05:52:57.514Z,54.80
2018-03-29T05:55:26.690Z,54.90
2018-03-29T05:57:55.722Z,54.80
2018-03-29T06:00:24.026Z,54.90
2018-03-29T06:02:52.307Z,55.00
2018-03-29T06:05:20.575Z,55.10
2018-03-29T06:07:48.842Z,55.00
2018-03-29T06:10:17.533Z,55.10
2018-03-29T06:12:46.057Z,55.40
2018-03-29T06:15:16.227Z,55.40
2018-03-29T06:17:44.547Z,55.10
2018-03-29T06:20:12.764Z,54.80
2018-03-29T06:22:40.974Z,54.80
2018-03-29T06:25:09.240Z,55.10
2018-03-29T06:27:37.483Z,55.00
2018-03-29T06:30:05.743Z,55.10
2018-03-29T06:32:34.750Z,55.20
2018-03-29T06:35:03.042Z,54.90
2018-03-29T06:37:32.022Z,55.10
2018-03-29T06:40:00.249Z,55.10
2018-03-29T06:42:28.510Z,54.80
2018-03-29T06:44:56.749Z,55.00
2018-03-29T06:47:25.024Z,54.80
2018-03-29T06:49:53.274Z,55.20
2018-03-29T06:52:21.573Z,55.00
2018-03-29T06:54:49.896Z,55.10
2018-03-29T06:57:18.558Z,54.90
2018-03-29T06:59:46.804Z,54.90
2018-03-29T07:02:15.083Z,55.00
2018-03-29T07:04:43.358Z,55.00
2018-03-29T07:07:11.613Z,55.00
2018-03-29T07:09:39.902Z,54.90
2018-03-29T07:12:09.037Z,54.80
2018-03-29T07:14:37.534Z,55.00
2018-03-29T07:17:05.775Z,55.20
2018-03-29T07:19:34.026Z,55.10
2018-03-29T07:22:02.505Z,55.00
2018-03-29T07:24:30.737Z,54.80
2018-03-29T07:26:59.058Z,54.40
2018-03-29T07:29:28.505Z,54.50
2018-03-29T07:31:56.842Z,54.40
2018-03-29T07:34:26.037Z,54.90
2018-03-29T07:36:54.275Z,54.70
2018-03-29T07:39:22.535Z,54.60
2018-03-29T07:41:50.919Z,54.70
2018-03-29T07:44:19.194Z,54.80
2018-03-29T07:46:47.489Z,55.10
2018-03-29T07:49:16.720Z,55.40
2018-03-29T07:51:45.086Z,55.90
2018-03-29T07:54:13.338Z,55.60
2018-03-29T07:56:41.625Z,55.40
2018-03-29T07:59:09.874Z,55.00
2018-03-29T08:01:38.119Z,55.10
2018-03-29T08:04:07.340Z,55.30
2018-03-29T08:06:35.606Z,54.60
2018-03-29T08:09:03.928Z,54.40
2018-03-29T08:11:32.193Z,54.30
2018-03-29T08:14:00.461Z,55.20
2018-03-29T08:16:28.770Z,54.60
2018-03-29T08:18:58.187Z,54.50
2018-03-29T08:21:26.419Z,54.70
2018-03-29T08:23:54.686Z,55.00
2018-03-29T08:26:23.016Z,54.90
2018-03-29T08:28:51.225Z,55.10
2018-03-29T08:31:21.115Z,55.40
2018-03-29T08:33:50.120Z,55.30
2018-03-29T08:36:18.452Z,55.40
2018-03-29T08:38:46.730Z,55.30
2018-03-29T08:41:15.015Z,56.00
2018-03-29T08:43:43.293Z,55.40
2018-03-29T08:46:11.581Z,55.40
2018-03-29T08:48:39.813Z,55.20
2018-03-29T08:51:08.105Z,55.10
2018-03-29T08:53:38.162Z,55.40
2018-03-29T08:56:08.014Z,55.50
2018-03-29T08:58:36.346Z,55.40
2018-03-29T09:01:04.742Z,55.10
2018-03-29T09:03:33.041Z,55.30
2018-03-29T09:06:01.321Z,55.50
2018-03-29T09:08:29.640Z,55.60
2018-03-29T09:10:57.930Z,55.60
2018-03-29T09:13:26.176Z,55.40
2018-03-29T09:15:54.448Z,56.20
2018-03-29T09:18:22.685Z,55.90
2018-03-29T09:20:51.113Z,55.60
2018-03-29T09:23:19.413Z,55.80
2018-03-29T09:25:47.813Z,55.80
2018-03-29T09:28:16.417Z,55.60
2018-03-29T09:30:44.677Z,55.60
2018-03-29T09:33:13.031Z,55.60
2018-03-29T09:35:41.584Z,55.90
2018-03-29T09:38:10.626Z,55.90
2018-03-29T09:40:38.930Z,56.10
2018-03-29T09:43:08.190Z,56.20
2018-03-29T09:45:36.897Z,56.40
2018-03-29T09:48:05.156Z,56.70
2018-03-29T09:50:35.873Z,56.90
2018-03-29T09:53:04.170Z,56.70
2018-03-29T09:55:33.161Z,56.90
2018-03-29T09:58:01.538Z,57.00
2018-03-29T10:00:34.898Z,57.40
2018-03-29T10:03:09.214Z,57.50
2018-03-29T10:05:38.463Z,57.50
2018-03-29T10:08:06.698Z,57.50
2018-03-29T10:10:35.098Z,57.40
2018-03-29T10:13:03.305Z,57.20
2018-03-29T10:15:31.565Z,57.20
2018-03-29T10:17:59.893Z,57.40
2018-03-29T10:20:28.175Z,57.10
2018-03-29T10:22:56.553Z,57.20
2018-03-29T10:25:24.832Z,57.20
2018-03-29T10:27:53.146Z,57.30
2018-03-29T10:30:21.590Z,56.60
2018-03-29T10:32:49.868Z,55.90
2018-03-29T10:35:18.169Z,56.20
2018-03-29T10:37:46.400Z,56.70
2018-03-29T10:40:14.651Z,56.30
2018-03-29T10:42:43.113Z,55.40
2018-03-29T10:45:12.124Z,55.70
2018-03-29T10:47:40.398Z,56.20
2018-03-29T10:50:08.663Z,56.10
2018-03-29T10:52:37.138Z,55.10
2018-03-29T10:55:06.884Z,54.20
2018-03-29T10:57:35.897Z,54.10
2018-03-29T11:00:04.224Z,53.70
2018-03-29T11:02:33.269Z,54.90
2018-03-29T11:05:01.716Z,54.90
2018-03-29T11:07:30.707Z,54.00
2018-03-29T11:09:58.956Z,54.10
2018-03-29T11:12:27.386Z,54.30
2018-03-29T11:14:55.641Z,54.10
2018-03-29T11:17:24.702Z,53.60
2018-03-29T11:19:53.003Z,53.50
2018-03-29T11:22:21.335Z,53.50
2018-03-29T11:24:50.510Z,53.10
2018-03-29T11:27:18.743Z,53.70
2018-03-29T11:29:47.165Z,52.80
2018-03-29T11:32:15.504Z,52.60
2018-03-29T11:34:44.618Z,52.20
2018-03-29T11:37:12.929Z,51.80
2018-03-29T11:39:42.057Z,50.80
2018-03-29T11:42:10.302Z,51.40
2018-03-29T11:44:38.726Z,51.10
2018-03-29T11:47:06.953Z,50.20
2018-03-29T11:49:36.756Z,50.40
2018-03-29T11:52:05.011Z,50.50
2018-03-29T11:54:33.458Z,50.30
2018-03-29T11:57:01.988Z,50.40
2018-03-29T11:59:30.430Z,50.30
2018-03-29T12:01:58.642Z,50.10
2018-03-29T12:04:26.905Z,50.20
2018-03-29T12:06:55.179Z,50.50
2018-03-29T12:09:23.991Z,50.10
2018-03-29T12:11:52.859Z,50.90
2018-03-29T12:14:21.125Z,50.80
2018-03-29T12:16:49.368Z,50.60
2018-03-29T12:19:17.644Z,50.50
2018-03-29T12:21:45.890Z,50.80
2018-03-29T12:24:14.895Z,50.30
2018-03-29T12:26:43.278Z,50.90
2018-03-29T12:29:11.513Z,51.00
2018-03-29T12:31:39.770Z,50.80
2018-03-29T12:34:07.993Z,50.70
2018-03-29T12:36:36.282Z,50.90
2018-03-29T12:39:04.685Z,50.90
2018-03-29T12:41:32.950Z,50.50
2018-03-29T12:44:02.808Z,50.60
2018-03-29T12:46:31.620Z,50.70
2018-03-29T12:49:00.661Z,50.60
2018-03-29T12:51:28.858Z,50.40
2018-03-29T12:53:57.884Z,49.50
2018-03-29T12:56:37.949Z,49.60
2018-03-29T12:59:06.484Z,49.80
2018-03-29T13:01:34.805Z,49.80
2018-03-29T13:04:02.955Z,49.80
2018-03-29T13:06:32.169Z,49.20
2018-03-29T13:09:00.467Z,49.30
2018-03-29T13:11:28.923Z,49.40
2018-03-29T13:13:57.293Z,49.30
2018-03-29T13:16:25.642Z,49.00
2018-03-29T13:18:53.879Z,49.00
2018-03-29T13:21:22.154Z,49.10
2018-03-29T13:23:50.443Z,49.10
2018-03-29T13:26:18.682Z,48.80
2018-03-29T13:28:47.147Z,48.10
2018-03-29T13:31:15.417Z,47.60
2018-03-29T13:33:43.795Z,46.80
2018-03-29T13:36:12.181Z,45.60
2018-03-29T13:38:40.659Z,45.40
2018-03-29T13:41:09.209Z,46.30
2018-03-29T13:43:42.210Z,45.10
2018-03-29T13:46:10.450Z,45.00
2018-03-29T13:48:39.523Z,44.40
2018-03-29T13:51:07.731Z,44.40
2018-03-29T13:53:35.974Z,44.10
2018-03-29T13:56:05.207Z,44.20
2018-03-29T13:58:33.490Z,44.00
2018-03-29T14:01:01.716Z,44.10
2018-03-29T14:03:30.784Z,43.70
2018-03-29T14:05:59.972Z,43.70
2018-03-29T14:08:28.197Z,43.70
2018-03-29T14:10:56.441Z,43.80
2018-03-29T14:13:25.654Z,42.90
2018-03-29T14:15:53.903Z,42.90
2018-03-29T14:18:22.168Z,42.40
2018-03-29T14:20:51.161Z,41.90
2018-03-29T14:23:20.179Z,42.10
2018-03-29T14:25:48.465Z,41.80
2018-03-29T14:28:16.690Z,41.20
2018-03-29T14:30:44.910Z,40.60
2018-03-29T14:33:15.714Z,40.40
2018-03-29T14:35:43.960Z,40.40
2018-03-29T14:38:12.264Z,40.20
2018-03-29T14:40:40.562Z,40.20
2018-03-29T14:43:09.555Z,39.30
2018-03-29T14:45:38.594Z,39.60
2018-03-29T14:48:06.855Z,39.60
2018-03-29T14:50:35.097Z,38.60
2018-03-29T14:53:03.358Z,39.70
2018-03-29T14:55:31.862Z,40.30
2018-03-29T14:58:00.150Z,40.20
2018-03-29T15:00:28.411Z,39.90
2018-03-29T15:02:56.724Z,39.50
2018-03-29T15:05:25.070Z,39.20
2018-03-29T15:07:57.430Z,39.70
2018-03-29T15:10:27.071Z,41.30
2018-03-29T15:13:00.434Z,43.50
2018-03-29T15:15:28.835Z,43.50
2018-03-29T15:17:57.181Z,44.10
2018-03-29T15:20:25.405Z,43.60
2018-03-29T15:22:57.314Z,44.80
2018-03-29T15:25:25.778Z,44.00
2018-03-29T15:27:55.004Z,44.30
2018-03-29T15:30:24.104Z,43.50
2018-03-29T15:32:52.364Z,43.50
2018-03-29T15:35:21.466Z,43.10
2018-03-29T15:37:49.706Z,42.80
2018-03-29T15:40:18.766Z,42.70
2018-03-29T15:42:47.238Z,42.60
2018-03-29T15:45:16.060Z,42.40
2018-03-29T15:47:44.318Z,42.20
2018-03-29T15:50:12.692Z,42.10
2018-03-29T15:52:41.729Z,41.70
2018-03-29T15:55:10.005Z,41.60
2018-03-29T15:57:39.202Z,41.90
2018-03-29T16:00:08.281Z,41.40
2018-03-29T16:02:36.582Z,41.00
2018-03-29T16:05:04.817Z,40.40
2018-03-29T16:07:33.898Z,40.60
2018-03-29T16:10:02.151Z,40.50
2018-03-29T16:12:31.183Z,42.90
2018-03-29T16:15:00.243Z,43.00
2018-03-29T16:17:28.508Z,43.00
2018-03-29T16:19:57.717Z,44.00
2018-03-29T16:22:26.994Z,44.80
2018-03-29T16:24:55.324Z,44.60
2018-03-29T16:27:23.591Z,44.90
2018-03-29T16:29:52.596Z,45.30
2018-03-29T16:32:21.763Z,45.60
2018-03-29T16:34:49.988Z,45.60
2018-03-29T16:37:18.245Z,45.00
2018-03-29T16:39:47.427Z,44.30
2018-03-29T16:42:15.675Z,44.50
2018-03-29T16:44:43.907Z,43.70
2018-03-29T16:47:12.159Z,44.30
2018-03-29T16:49:40.451Z,44.50
2018-03-29T16:52:08.783Z,44.00
2018-03-29T16:54:38.550Z,44.00
2018-03-29T16:57:06.822Z,44.00
2018-03-29T16:59:35.073Z,43.90
2018-03-29T17:02:04.348Z,43.80
2018-03-29T17:04:32.631Z,43.30
2018-03-29T17:07:00.908Z,43.50
2018-03-29T17:09:29.178Z,43.50
2018-03-29T17:11:57.427Z,43.70
2018-03-29T17:14:25.804Z,43.50
2018-03-29T17:16:54.210Z,43.30
2018-03-29T17:19:22.391Z,42.80
2018-03-29T17:21:51.406Z,43.00
2018-03-29T17:24:19.696Z,43.20
2018-03-29T17:26:47.957Z,43.50
2018-03-29T17:29:16.221Z,43.10
2018-03-29T17:31:44.432Z,42.30
2018-03-29T17:34:12.703Z,41.70
2018-03-29T17:36:40.951Z,41.80
2018-03-29T17:39:09.318Z,41.90
2018-03-29T17:41:37.537Z,41.80
2018-03-29T17:44:05.793Z,41.90
2018-03-29T17:46:35.173Z,41.80
2018-03-29T17:49:03.432Z,42.10
2018-03-29T17:51:32.494Z,42.00
2018-03-29T17:54:00.796Z,41.90
2018-03-29T17:56:30.628Z,42.30
2018-03-29T17:58:58.840Z,42.30
2018-03-29T18:01:27.137Z,42.40
2018-03-29T18:03:56.176Z,42.50
2018-03-29T18:06:25.929Z,42.80
2018-03-29T18:08:54.196Z,42.70
2018-03-29T18:11:23.699Z,42.70
2018-03-29T18:13:51.912Z,42.70
2018-03-29T18:16:20.218Z,42.90
2018-03-29T18:18:48.480Z,43.00
2018-03-29T18:21:16.729Z,43.10
2018-03-29T18:23:44.981Z,43.30
2018-03-29T18:26:13.275Z,43.00
2018-03-29T18:28:43.135Z,43.50
2018-03-29T18:31:11.416Z,43.60
2018-03-29T18:33:39.650Z,43.50
2018-03-29T18:36:07.950Z,43.70
2018-03-29T18:38:36.214Z,43.80
2018-03-29T18:41:04.501Z,43.90
2018-03-29T18:43:32.772Z,44.00
2018-03-29T18:46:01.008Z,44.00
2018-03-29T18:48:29.267Z,44.30
2018-03-29T18:50:57.520Z,43.90
2018-03-29T18:53:25.775Z,44.00
2018-03-29T18:55:54.018Z,44.30
2018-03-29T18:58:22.469Z,44.40
2018-03-29T19:00:51.652Z,44.40
2018-03-29T19:03:20.952Z,44.40
2018-03-29T19:05:49.246Z,44.20
2018-03-29T19:08:17.789Z,44.20
2018-03-29T19:10:46.140Z,44.20
2018-03-29T19:13:15.442Z,44.10
2018-03-29T19:15:43.707Z,44.10
2018-03-29T19:18:14.076Z,44.30
2018-03-29T19:20:42.338Z,43.90
2018-03-29T19:23:10.729Z,44.20
2018-03-29T19:25:40.718Z,43.90
2018-03-29T19:28:09.909Z,44.00
2018-03-29T19:30:38.341Z,44.30
2018-03-29T19:33:06.635Z,44.30
2018-03-29T19:35:34.878Z,44.30
2018-03-29T19:38:03.181Z,44.20
2018-03-29T19:40:32.078Z,44.20
2018-03-29T19:43:01.031Z,44.40
2018-03-29T19:45:30.264Z,44.30
2018-03-29T19:48:00.976Z,44.40
2018-03-29T19:50:30.193Z,44.30
2018-03-29T19:52:58.620Z,44.50
2018-03-29T19:55:26.863Z,44.50
2018-03-29T19:57:55.201Z,44.80
2018-03-29T20:00:23.491Z,45.00
2018-03-29T20:02:52.483Z,44.80
2018-03-29T20:05:20.784Z,44.60
2018-03-29T20:07:49.760Z,44.90
2018-03-29T20:10:18.115Z,44.80
2018-03-29T20:12:47.184Z,45.00
2018-03-29T20:15:15.459Z,45.00
2018-03-29T20:17:43.714Z,45.20
2018-03-29T20:20:15.049Z,45.10
2018-03-29T20:22:43.277Z,45.10
2018-03-29T20:25:11.562Z,45.10
2018-03-29T20:27:39.884Z,44.70
2018-03-29T20:30:08.909Z,44.90
2018-03-29T20:32:37.177Z,45.20
2018-03-29T20:35:05.466Z,45.10
2018-03-29T20:37:35.407Z,46.10
2018-03-29T20:40:03.662Z,45.40
2018-03-29T20:42:31.969Z,45.30
2018-03-29T20:45:00.351Z,45.40
2018-03-29T20:47:28.586Z,46.40
2018-03-29T20:49:57.395Z,46.40
2018-03-29T20:52:25.801Z,45.60
2018-03-29T20:54:54.060Z,46.80
2018-03-29T20:57:23.972Z,46.60
2018-03-29T20:59:52.430Z,47.10
2018-03-29T21:02:20.840Z,46.90
2018-03-29T21:04:49.089Z,46.80
2018-03-29T21:07:17.377Z,47.00
2018-03-29T21:09:45.609Z,47.30
2018-03-29T21:12:13.974Z,47.20
2018-03-29T21:14:43.163Z,47.00
2018-03-29T21:17:11.447Z,47.00
2018-03-29T21:19:39.965Z,47.20
2018-03-29T21:22:08.229Z,47.50
2018-03-29T21:24:36.534Z,47.40
2018-03-29T21:27:04.810Z,47.30
2018-03-29T21:29:33.060Z,47.30
2018-03-29T21:32:01.319Z,47.40
2018-03-29T21:34:30.003Z,47.60
2018-03-29T21:36:58.350Z,47.70
2018-03-29T21:39:26.742Z,47.80
2018-03-29T21:41:55.014Z,47.50
2018-03-29T21:44:23.254Z,47.80
2018-03-29T21:46:51.550Z,47.90
2018-03-29T21:49:20.070Z,48.10
2018-03-29T21:51:48.452Z,48.30
2018-03-29T21:54:16.723Z,48.00
2018-03-29T21:56:45.746Z,48.20
2018-03-29T21:59:14.001Z,47.90
2018-03-29T22:01:42.278Z,48.20
2018-03-29T22:04:11.537Z,48.30
2018-03-29T22:06:39.785Z,48.50
2018-03-29T22:09:08.290Z,48.60
2018-03-29T22:11:36.514Z,48.90
2018-03-29T22:14:05.360Z,48.90
2018-03-29T22:16:33.635Z,48.80
2018-03-29T22:19:02.067Z,49.10
2018-03-29T22:21:32.266Z,48.90
2018-03-29T22:24:00.563Z,48.80
2018-03-29T22:26:28.814Z,49.00
2018-03-29T22:28:57.882Z,49.00
2018-03-29T22:31:26.130Z,49.10
2018-03-29T22:33:54.390Z,49.00
2018-03-29T22:36:23.389Z,49.70
2018-03-29T22:38:52.522Z,49.10
2018-03-29T22:41:20.741Z,49.10
2018-03-29T22:43:48.996Z,49.20
2018-03-29T22:46:17.310Z,49.30
2018-03-29T22:48:46.333Z,49.50
2018-03-29T22:51:14.579Z,49.80
2018-03-29T22:53:46.360Z,49.60
2018-03-29T22:56:15.588Z,49.70
2018-03-29T22:58:43.891Z,49.70
2018-03-29T23:01:12.117Z,49.60
2018-03-29T23:03:40.424Z,49.50
2018-03-29T23:06:10.188Z,50.00
2018-03-29T23:08:38.455Z,50.00
2018-03-29T23:11:06.726Z,50.10
2018-03-29T23:13:34.956Z,49.90
2018-03-29T23:16:04.064Z,49.90
2018-03-29T23:18:32.794Z,49.90
2018-03-29T23:21:01.704Z,50.00
2018-03-29T23:23:30.175Z,50.00
2018-03-29T23:25:58.355Z,50.20
2018-03-29T23:28:26.835Z,50.40
2018-03-29T23:30:55.687Z,50.00
2018-03-29T23:33:24.687Z,50.40
2018-03-29T23:35:53.441Z,50.20
2018-03-29T23:38:21.683Z,50.00
2018-03-29T23:40:49.921Z,50.40
2018-03-29T23:43:18.164Z,50.50
2018-03-29T23:45:46.771Z,50.30
2018-03-29T23:48:15.011Z,50.50
2018-03-29T23:50:43.330Z,50.40
2018-03-29T23:53:11.754Z,50.50
2018-03-29T23:55:40.826Z,51.10
2018-03-29T23:58:16.765Z,51.00
